Friday, January 19, 2018, 4:03 AM GMT
Back to Local

CWWE, Western Head, N. S.

Location: , , Canada Lat: 43.983
Local Time: 4:03 AM GMT ( 4:03 GMT) Lon: -64.667
Time Zone: GMT Elev: 29 ft

Show me the last for .
Show Decoded

2018-01-19 03:00 METAR CWWE 190300Z AUTO 35009KT M04/M05 RMK AO1 SOG 09 8005 SLP081 T10411052 =
2018-01-19 02:00 METAR CWWE 190200Z AUTO 35007KT M03/M05 RMK AO1 SOG 09 0005 SLP085 T10331046 =
2018-01-19 01:00 METAR CWWE 190100Z AUTO 35005KT M03/M04 RMK AO1 SOG 09 1011 SLP087 T10291035 =
2018-01-19 00:00 METAR CWWE 190000Z AUTO 34005KT M02/M03 RMK AO1 SOG 09 2016 SLP086 T10221034 =
2018-01-18 23:00 METAR CWWE 182300Z AUTO 34004KT M01/M03 RMK AO1 SOG 09 3003 SLP080 T10131028 =
2018-01-18 22:00 METAR CWWE 182200Z AUTO 34005KT M00/M01 RMK AO1 SOG 09 5006 SLP076 T10011013 =
2018-01-18 21:00 METAR CWWE 182100Z AUTO 34004KT 01/M00 RMK AO1 SOG 09 SLP070 T00051003 =
2018-01-18 20:00 METAR CWWE 182000Z AUTO 32004KT 02/01 RMK AO1 SOG 09 SLP076 T00190005 =
2018-01-18 19:00 METAR CWWE 181900Z AUTO 30005KT 02/M00 RMK AO1 SOG 09 SLP081 T00231003 =
2018-01-18 17:00 METAR CWWE 181700Z AUTO 22003KT 01/M00 RMK AO1 2PAST HR SOG 10 8026 SLP094 P0001
                 T00141002 50002 =
2018-01-18 16:00 METAR CWWE 181600Z AUTO 26002KT 02/M00 RMK AO1 SOG 09 8016 SLP104 T00171001 =
2018-01-18 15:00 METAR CWWE 181500Z AUTO 35003KT 02/01 RMK AO1 SOG 09 8005 SLP111 T00160012 =
2018-01-18 14:00 METAR CWWE 181400Z AUTO 32006KT 00/00 RMK AO1 SOG 10 1004 SLP120 T00000000 =
2018-01-18 13:00 METAR CWWE 181300Z AUTO 32007KT M00/M00 RMK AO1 SOG 10 1013 SLP120 T10041004 =
2018-01-18 12:00 METAR CWWE 181200Z AUTO 33004KT M00/ RMK AO1 SOG 10 1014 SLP116 T1003 =
2018-01-18 11:00 METAR CWWE 181100Z AUTO 29002KT M00/ RMK AO1 SOG 10 3005 SLP116 T1002 =
2018-01-18 10:00 METAR CWWE 181000Z AUTO 31006KT M00/ RMK AO1 SOG 10 5008 SLP107 T1002 =
2018-01-18 09:00 METAR CWWE 180900Z AUTO 33006KT M00/ RMK AO1 SOG 10 8003 SLP102 T1002 =
2018-01-18 08:00 METAR CWWE 180800Z AUTO 31007KT M00/ RMK AO1 SOG 10 0008 SLP111 T1001 =
2018-01-18 07:00 METAR CWWE 180700Z AUTO 30006KT M00/ RMK AO1 SOG 10 3004 SLP115 T1002 =
2018-01-18 06:00 METAR CWWE 180600Z AUTO 33008KT M00/ RMK AO1 SOG 11 5004 SLP105 T1003 50040 =
2018-01-18 05:00 METAR CWWE 180500Z AUTO 34007KT M00/ RMK AO1 SOG 11 7014 SLP103 T1003 50040 =

Support USWX by starting your Amazon purchase here.